createdAt,value
2018-04-16T00:00:32.782Z,10.37
2018-04-16T00:02:59.230Z,9.07
2018-04-16T00:05:25.633Z,9.80
2018-04-16T00:07:51.980Z,10.17
2018-04-16T00:10:18.381Z,11.60
2018-04-16T00:12:44.793Z,10.70
2018-04-16T00:15:11.125Z,9.87
2018-04-16T00:17:37.533Z,9.03
2018-04-16T00:20:04.009Z,10.73
2018-04-16T00:22:30.422Z,10.97
2018-04-16T00:24:56.805Z,10.73
2018-04-16T00:27:23.161Z,10.10
2018-04-16T00:29:49.554Z,8.43
2018-04-16T00:32:21.777Z,10.83
2018-04-16T00:34:54.026Z,9.43
2018-04-16T00:37:26.499Z,8.87
2018-04-16T00:39:58.838Z,12.23
2018-04-16T00:42:31.330Z,9.80
2018-04-16T00:45:03.917Z,9.77
2018-04-16T00:47:36.323Z,10.07
2018-04-16T01:03:37.280Z,11.40
2018-04-16T01:06:09.810Z,13.07
2018-04-16T01:08:42.250Z,13.60
2018-04-16T01:11:14.631Z,15.80
2018-04-16T01:13:47.129Z,14.03
2018-04-16T01:16:19.590Z,12.37
2018-04-16T01:32:18.571Z,16.33
2018-04-16T01:34:50.878Z,17.67
2018-04-16T01:37:23.235Z,16.03
2018-04-16T01:39:55.574Z,17.17
2018-04-16T01:42:27.806Z,15.80
2018-04-16T01:45:00.249Z,16.13
2018-04-16T01:47:32.690Z,17.73
2018-04-16T01:50:05.054Z,18.37
2018-04-16T01:52:37.458Z,20.37
2018-04-16T01:55:09.909Z,17.50
2018-04-16T01:57:42.385Z,18.33
2018-04-16T02:00:14.617Z,17.23
2018-04-16T02:02:47.138Z,18.53
2018-04-16T02:05:19.637Z,17.63
2018-04-16T02:07:51.943Z,17.90
2018-04-16T02:10:24.138Z,24.40
2018-04-16T02:12:56.654Z,15.23
2018-04-16T02:15:28.926Z,17.83
2018-04-16T02:18:01.226Z,18.13
2018-04-16T02:20:33.774Z,18.23
2018-04-16T02:23:06.206Z,18.97
2018-04-16T02:25:38.607Z,20.17
2018-04-16T02:28:10.958Z,19.93
2018-04-16T02:30:43.290Z,20.23
2018-04-16T02:33:15.718Z,20.23
2018-04-16T02:35:48.077Z,19.40
2018-04-16T02:38:21.053Z,20.00
2018-04-16T02:40:53.457Z,19.93
2018-04-16T02:43:25.909Z,21.87
2018-04-16T02:45:58.357Z,20.23
2018-04-16T02:48:30.598Z,23.43
2018-04-16T02:51:02.931Z,20.47
2018-04-16T02:53:35.361Z,22.43
2018-04-16T02:56:07.774Z,23.63
2018-04-16T02:58:40.258Z,22.57
2018-04-16T03:01:12.600Z,22.47
2018-04-16T03:03:45.081Z,22.10
2018-04-16T03:06:17.456Z,23.03
2018-04-16T03:08:49.992Z,25.20
2018-04-16T03:11:22.553Z,22.93
2018-04-16T03:13:54.884Z,24.43
2018-04-16T03:16:27.287Z,23.40
2018-04-16T03:18:59.636Z,27.23
2018-04-16T03:21:32.171Z,25.53
2018-04-16T03:24:04.709Z,21.57
2018-04-16T03:26:37.097Z,24.50
2018-04-16T03:29:09.410Z,22.00
2018-04-16T03:31:41.963Z,23.33
2018-04-16T03:34:14.421Z,23.83
2018-04-16T03:36:46.883Z,22.47
2018-04-16T03:39:19.326Z,16.43
2018-04-16T03:41:51.530Z,17.53
2018-04-16T03:44:23.986Z,16.63
2018-04-16T03:46:56.450Z,15.77
2018-04-16T03:49:28.958Z,15.70
2018-04-16T04:05:17.850Z,16.70
2018-04-16T04:07:44.185Z,16.13
2018-04-16T04:10:10.566Z,17.67
2018-04-16T04:12:36.910Z,14.90
2018-04-16T04:15:03.265Z,15.83
2018-04-16T04:17:29.682Z,22.77
2018-04-16T04:19:56.018Z,14.13
2018-04-16T04:22:34.501Z,14.43
2018-04-16T04:25:13.171Z,18.67
2018-04-16T04:27:51.557Z,18.60
2018-04-16T04:30:28.194Z,28.87
2018-04-16T04:32:54.819Z,21.43
2018-04-16T04:35:21.253Z,24.73
2018-04-16T04:37:47.750Z,25.07
2018-04-16T04:40:14.087Z,25.93
2018-04-16T04:42:40.470Z,36.53
2018-04-16T04:45:06.813Z,28.10
2018-04-16T04:47:33.394Z,30.40
2018-04-16T04:49:59.781Z,25.50
2018-04-16T04:52:26.133Z,26.57
2018-04-16T04:54:52.462Z,34.47
2018-04-16T04:57:18.948Z,25.57
2018-04-16T04:59:45.277Z,25.00
2018-04-16T05:02:11.618Z,24.13
2018-04-16T05:04:37.954Z,26.20
2018-04-16T05:07:04.329Z,24.33
2018-04-16T05:09:30.693Z,22.23
2018-04-16T05:11:57.019Z,26.93
2018-04-16T05:14:23.366Z,22.90
2018-04-16T05:16:50.030Z,24.10
2018-04-16T05:19:16.567Z,26.60
2018-04-16T05:21:42.905Z,22.97
2018-04-16T05:24:09.322Z,28.50
2018-04-16T05:26:35.733Z,24.30
2018-04-16T05:29:02.177Z,22.00
2018-04-16T05:31:28.515Z,25.53
2018-04-16T05:33:54.919Z,20.63
2018-04-16T05:36:21.369Z,23.23
2018-04-16T05:38:47.781Z,22.03
2018-04-16T05:41:14.266Z,19.80
2018-04-16T05:43:40.645Z,24.87
2018-04-16T05:46:07.113Z,18.10
2018-04-16T05:48:33.487Z,18.60
2018-04-16T05:51:00.022Z,16.03
2018-04-16T05:53:26.414Z,18.00
2018-04-16T05:55:52.765Z,19.33
2018-04-16T05:58:19.501Z,20.50
2018-04-16T06:00:45.989Z,18.47
2018-04-16T06:03:12.342Z,22.57
2018-04-16T06:05:38.706Z,19.77
2018-04-16T06:08:05.074Z,17.23
2018-04-16T06:10:31.439Z,20.00
2018-04-16T06:12:57.794Z,16.03
2018-04-16T06:15:24.125Z,19.10
2018-04-16T06:17:50.478Z,19.50
2018-04-16T06:20:16.860Z,22.40
2018-04-16T06:22:43.205Z,20.70
2018-04-16T06:25:09.617Z,22.37
2018-04-16T06:27:35.979Z,20.37
2018-04-16T06:30:02.366Z,18.30
2018-04-16T06:32:28.709Z,15.63
2018-04-16T06:34:55.439Z,17.03
2018-04-16T06:37:22.308Z,15.53
2018-04-16T06:39:48.878Z,31.07
2018-04-16T06:42:15.302Z,15.87
2018-04-16T06:44:41.721Z,18.30
2018-04-16T06:47:08.067Z,17.07
2018-04-16T06:49:34.550Z,19.07
2018-04-16T06:52:01.085Z,17.43
2018-04-16T06:54:27.416Z,19.00
2018-04-16T06:56:53.730Z,14.23
2018-04-16T06:59:20.106Z,15.50
2018-04-16T07:01:46.522Z,14.40
2018-04-16T07:04:12.974Z,17.13
2018-04-16T07:06:39.342Z,15.70
2018-04-16T07:09:05.754Z,18.00
2018-04-16T07:11:32.140Z,20.17
2018-04-16T07:13:58.482Z,15.37
2018-04-16T07:16:24.888Z,13.43
2018-04-16T07:18:51.325Z,14.67
2018-04-16T07:21:17.672Z,14.33
2018-04-16T07:23:44.009Z,13.00
2018-04-16T07:26:10.343Z,13.10
2018-04-16T07:28:36.718Z,13.67
2018-04-16T07:31:03.487Z,16.73
2018-04-16T07:33:29.846Z,15.60
2018-04-16T07:35:56.252Z,12.90
2018-04-16T07:38:22.600Z,13.57
2018-04-16T07:40:48.946Z,15.13
2018-04-16T07:43:15.305Z,10.17
2018-04-16T07:45:41.698Z,10.40
2018-04-16T07:48:08.194Z,15.40
2018-04-16T07:50:34.540Z,12.83
2018-04-16T07:53:00.894Z,14.30
2018-04-16T07:55:27.255Z,14.80
2018-04-16T07:57:53.609Z,20.80
2018-04-16T08:00:20.012Z,10.50
2018-04-16T08:02:46.367Z,12.97
2018-04-16T08:05:12.785Z,13.93
2018-04-16T08:07:39.131Z,12.80
2018-04-16T08:10:05.556Z,12.20
2018-04-16T08:12:31.960Z,12.10
2018-04-16T08:14:58.318Z,13.27
2018-04-16T08:17:24.676Z,11.33
2018-04-16T08:19:51.049Z,17.27
2018-04-16T08:22:17.485Z,14.77
2018-04-16T08:24:43.998Z,12.13
2018-04-16T08:27:10.337Z,10.70
2018-04-16T08:29:36.809Z,15.93
2018-04-16T08:32:03.227Z,12.57
2018-04-16T08:34:29.602Z,16.13
2018-04-16T08:36:55.943Z,12.83
2018-04-16T08:39:22.270Z,14.57
2018-04-16T08:41:48.668Z,15.70
2018-04-16T08:44:14.989Z,12.27
2018-04-16T08:46:41.387Z,14.47
2018-04-16T08:49:07.753Z,13.63
2018-04-16T08:51:34.096Z,11.00
2018-04-16T08:54:00.750Z,11.67
2018-04-16T08:56:27.093Z,10.77
2018-04-16T08:58:53.421Z,13.83
2018-04-16T09:01:19.758Z,12.60
2018-04-16T09:03:46.162Z,9.97
2018-04-16T09:06:12.517Z,13.40
2018-04-16T09:08:38.872Z,11.97
2018-04-16T09:11:05.257Z,12.90
2018-04-16T09:13:31.622Z,12.00
2018-04-16T09:15:57.950Z,9.90
2018-04-16T09:18:24.490Z,12.63
2018-04-16T09:20:50.895Z,12.20
2018-04-16T09:23:17.308Z,8.13
2018-04-16T09:25:43.830Z,13.83
2018-04-16T09:28:10.185Z,9.80
2018-04-16T09:30:36.554Z,14.40
2018-04-16T09:33:02.930Z,8.93
2018-04-16T09:35:29.302Z,12.47
2018-04-16T09:37:55.633Z,12.70
2018-04-16T09:40:22.167Z,13.10
2018-04-16T09:42:48.557Z,12.80
2018-04-16T09:45:15.221Z,10.73
2018-04-16T09:47:41.618Z,10.93
2018-04-16T09:50:07.992Z,10.23
2018-04-16T09:52:34.342Z,11.43
2018-04-16T09:55:00.677Z,14.80
2018-04-16T09:57:27.026Z,7.30
2018-04-16T09:59:53.377Z,11.00
2018-04-16T10:02:24.639Z,10.87
2018-04-16T10:04:51.142Z,12.97
2018-04-16T10:07:17.505Z,8.63
2018-04-16T10:09:43.856Z,9.53
2018-04-16T10:12:10.194Z,10.10
2018-04-16T10:14:36.520Z,8.73
2018-04-16T10:17:02.866Z,9.90
2018-04-16T10:19:29.189Z,11.47
2018-04-16T10:21:55.665Z,8.73
2018-04-16T10:24:22.302Z,9.43
2018-04-16T10:26:49.043Z,8.87
2018-04-16T10:29:15.433Z,11.53
2018-04-16T10:31:41.990Z,9.47
2018-04-16T10:34:08.398Z,9.50
2018-04-16T10:36:35.002Z,10.97
2018-04-16T10:39:01.317Z,9.90
2018-04-16T10:41:27.686Z,10.83
2018-04-16T10:43:54.032Z,11.60
2018-04-16T10:46:20.447Z,12.80
2018-04-16T10:48:46.959Z,9.13
2018-04-16T10:51:13.302Z,11.13
2018-04-16T10:53:39.658Z,8.57
2018-04-16T10:56:06.118Z,10.37
2018-04-16T10:58:32.493Z,10.27
2018-04-16T11:00:58.960Z,9.03
2018-04-16T11:03:25.314Z,7.37
2018-04-16T11:05:51.877Z,12.57
2018-04-16T11:08:18.220Z,9.77
2018-04-16T11:10:44.607Z,9.87
2018-04-16T11:13:10.954Z,8.90
2018-04-16T11:15:37.331Z,8.57
2018-04-16T11:18:03.685Z,16.40
2018-04-16T11:20:30.051Z,12.70
2018-04-16T11:22:56.513Z,10.60
2018-04-16T11:25:22.906Z,10.30
2018-04-16T11:27:49.299Z,8.17
2018-04-16T11:30:15.682Z,8.43
2018-04-16T11:32:42.190Z,11.10
2018-04-16T11:35:08.545Z,6.53
2018-04-16T11:37:35.051Z,7.37
2018-04-16T11:40:01.618Z,10.17
2018-04-16T11:42:27.961Z,8.37
2018-04-16T11:44:54.298Z,9.30
2018-04-16T11:47:20.681Z,10.57
2018-04-16T11:49:47.116Z,8.03
2018-04-16T11:52:13.446Z,7.47
2018-04-16T11:54:39.798Z,7.63
2018-04-16T11:57:06.382Z,9.50
2018-04-16T11:59:32.730Z,7.87
2018-04-16T12:01:59.081Z,8.10
2018-04-16T12:04:25.473Z,7.40
2018-04-16T12:06:51.827Z,7.03
2018-04-16T12:09:18.200Z,9.60
2018-04-16T12:11:44.573Z,9.53
2018-04-16T12:14:10.936Z,6.93
2018-04-16T12:16:37.328Z,7.90
2018-04-16T12:19:03.747Z,8.77
2018-04-16T12:21:30.198Z,7.43
2018-04-16T12:23:56.541Z,7.97
2018-04-16T12:26:23.232Z,9.30
2018-04-16T12:28:50.075Z,7.73
2018-04-16T12:31:16.413Z,8.67
2018-04-16T12:33:43.002Z,6.87
2018-04-16T12:36:09.529Z,5.80
2018-04-16T12:38:36.114Z,7.13
2018-04-16T12:41:02.526Z,7.07
2018-04-16T12:43:28.931Z,6.30
2018-04-16T12:45:55.274Z,7.70
2018-04-16T12:48:21.624Z,9.80
2018-04-16T12:50:47.958Z,7.77
2018-04-16T12:53:14.310Z,9.70
2018-04-16T12:55:40.692Z,9.57
2018-04-16T12:58:07.062Z,9.83
2018-04-16T13:00:33.414Z,7.57
2018-04-16T13:02:59.755Z,10.63
2018-04-16T13:05:26.153Z,10.20
2018-04-16T13:07:52.546Z,7.33
2018-04-16T13:10:18.907Z,9.70
2018-04-16T13:12:45.241Z,8.77
2018-04-16T13:15:11.595Z,9.93
2018-04-16T13:17:37.970Z,10.17
2018-04-16T13:20:04.392Z,11.03
2018-04-16T13:22:30.705Z,9.93
2018-04-16T13:24:57.263Z,9.37
2018-04-16T13:27:23.615Z,10.00
2018-04-16T13:29:49.950Z,9.67
2018-04-16T13:32:16.317Z,9.17
2018-04-16T13:34:42.733Z,8.20
2018-04-16T13:37:09.110Z,15.33
2018-04-16T13:39:35.650Z,16.57
2018-04-16T13:42:02.092Z,8.90
2018-04-16T13:44:28.457Z,7.63
2018-04-16T13:46:54.823Z,8.67
2018-04-16T13:49:21.206Z,8.77
2018-04-16T13:51:47.562Z,8.47
2018-04-16T13:54:13.918Z,9.20
2018-04-16T13:56:40.305Z,7.93
2018-04-16T13:59:06.670Z,5.97
2018-04-16T14:01:33.012Z,9.03
2018-04-16T14:03:59.366Z,11.90
2018-04-16T14:06:25.854Z,8.60
2018-04-16T14:08:52.342Z,7.80
2018-04-16T14:11:18.713Z,9.77
2018-04-16T14:13:45.202Z,7.57
2018-04-16T14:16:11.602Z,12.07
2018-04-16T14:18:37.946Z,9.90
2018-04-16T14:21:04.454Z,7.93
2018-04-16T14:23:30.829Z,8.93
2018-04-16T14:25:57.352Z,6.03
2018-04-16T14:28:23.901Z,7.40
2018-04-16T14:30:50.429Z,8.23
2018-04-16T14:33:16.700Z,7.73
2018-04-16T14:35:43.058Z,9.07
2018-04-16T14:38:09.434Z,7.20
2018-04-16T14:40:35.790Z,9.40
2018-04-16T14:43:02.143Z,7.97
2018-04-16T14:45:28.581Z,7.67
2018-04-16T14:47:55.015Z,9.40
2018-04-16T14:50:21.448Z,6.97
2018-04-16T14:52:47.929Z,9.43
2018-04-16T14:55:14.323Z,9.10
2018-04-16T14:57:41.340Z,7.00
2018-04-16T15:00:07.822Z,6.93
2018-04-16T15:02:34.097Z,9.53
2018-04-16T15:05:00.527Z,16.20
2018-04-16T15:07:26.811Z,8.20
2018-04-16T15:09:53.142Z,10.20
2018-04-16T15:12:19.506Z,8.30
2018-04-16T15:14:45.917Z,8.03
2018-04-16T15:17:12.290Z,7.93
2018-04-16T15:19:38.717Z,5.67
2018-04-16T15:22:05.125Z,6.57
2018-04-16T15:24:31.510Z,6.17
2018-04-16T15:26:57.878Z,8.33
2018-04-16T15:29:24.257Z,9.37
2018-04-16T15:31:50.611Z,6.13
2018-04-16T15:34:16.990Z,13.67
2018-04-16T15:36:43.354Z,9.77
2018-04-16T15:39:09.724Z,6.30
2018-04-16T15:41:36.163Z,7.67
2018-04-16T15:44:02.653Z,9.87
2018-04-16T15:46:29.001Z,7.17
2018-04-16T15:48:55.371Z,9.30
2018-04-16T15:51:21.721Z,9.20
2018-04-16T15:53:48.053Z,10.80
2018-04-16T15:56:14.432Z,9.87
2018-04-16T15:58:40.814Z,10.27
2018-04-16T16:01:07.094Z,8.87
2018-04-16T16:03:33.546Z,11.97
2018-04-16T16:05:59.926Z,8.40
2018-04-16T16:08:26.293Z,7.60
2018-04-16T16:10:52.571Z,10.63
2018-04-16T16:13:18.851Z,7.17
2018-04-16T16:15:45.118Z,11.43
2018-04-16T16:18:11.413Z,10.10
2018-04-16T16:20:37.745Z,8.30
2018-04-16T16:23:04.134Z,7.40
2018-04-16T16:25:30.507Z,8.33
2018-04-16T16:27:57.498Z,10.03
2018-04-16T16:30:24.524Z,9.77
2018-04-16T16:32:51.054Z,12.10
2018-04-16T16:35:17.362Z,11.97
2018-04-16T16:37:43.622Z,9.23
2018-04-16T16:40:09.880Z,10.67
2018-04-16T16:42:36.317Z,11.23
2018-04-16T16:45:02.630Z,9.40
2018-04-16T16:47:28.974Z,9.23
2018-04-16T16:49:55.330Z,8.97
2018-04-16T16:52:21.662Z,13.03
2018-04-16T16:54:47.952Z,11.07
2018-04-16T16:57:14.225Z,8.40
2018-04-16T16:59:40.655Z,10.53
2018-04-16T17:02:06.935Z,11.30
2018-04-16T17:04:33.210Z,10.93
2018-04-16T17:06:59.474Z,12.93
2018-04-16T17:09:25.753Z,12.60
2018-04-16T17:11:52.084Z,7.70
2018-04-16T17:14:18.401Z,12.07
2018-04-16T17:16:44.693Z,12.13
2018-04-16T17:19:10.948Z,15.93
2018-04-16T17:21:37.597Z,12.03
2018-04-16T17:24:03.902Z,12.43
2018-04-16T17:26:30.205Z,11.47
2018-04-16T17:28:56.582Z,13.50
2018-04-16T17:31:22.896Z,13.30
2018-04-16T17:33:49.161Z,12.20
2018-04-16T17:36:15.424Z,12.23
2018-04-16T17:38:41.699Z,13.50
2018-04-16T17:41:07.978Z,13.90
2018-04-16T17:43:34.273Z,9.60
2018-04-16T17:46:00.550Z,12.17
2018-04-16T17:48:26.802Z,11.87
2018-04-16T17:50:53.089Z,10.63
2018-04-16T17:53:19.342Z,11.47
2018-04-16T17:55:45.614Z,16.07
2018-04-16T17:58:11.910Z,13.60
2018-04-16T18:00:38.169Z,12.37
2018-04-16T18:03:04.524Z,13.67
2018-04-16T18:05:30.829Z,11.60
2018-04-16T18:07:57.084Z,10.50
2018-04-16T18:10:23.415Z,11.67
2018-04-16T18:12:49.873Z,12.73
2018-04-16T18:15:16.179Z,13.73
2018-04-16T18:17:42.511Z,12.27
2018-04-16T18:20:08.818Z,11.60
2018-04-16T18:22:35.091Z,11.37
2018-04-16T18:25:01.585Z,11.00
2018-04-16T18:27:27.906Z,10.83
2018-04-16T18:29:54.161Z,10.63
2018-04-16T18:32:21.150Z,9.13
2018-04-16T18:34:47.459Z,8.30
2018-04-16T18:37:13.755Z,10.40
2018-04-16T18:39:40.041Z,12.33
2018-04-16T18:42:06.435Z,12.47
2018-04-16T18:44:32.689Z,13.40
2018-04-16T18:46:58.973Z,13.60
2018-04-16T18:49:25.249Z,12.63
2018-04-16T18:51:51.556Z,9.57
2018-04-16T18:54:18.053Z,21.57
2018-04-16T18:56:44.391Z,12.03
2018-04-16T18:59:10.702Z,13.27
2018-04-16T19:01:36.969Z,10.30
2018-04-16T19:04:03.299Z,10.63
2018-04-16T19:06:29.951Z,11.37
2018-04-16T19:08:56.283Z,13.83
2018-04-16T19:11:22.541Z,13.83
2018-04-16T19:13:48.837Z,14.93
2018-04-16T19:16:15.098Z,17.33
2018-04-16T19:18:41.374Z,13.60
2018-04-16T19:21:13.798Z,12.23
2018-04-16T19:23:40.074Z,12.53
2018-04-16T19:26:06.353Z,12.60
2018-04-16T19:28:32.675Z,13.80
2018-04-16T19:30:58.971Z,13.77
2018-04-16T19:33:31.313Z,13.57
2018-04-16T19:35:57.633Z,12.77
2018-04-16T19:38:23.929Z,17.17
2018-04-16T19:40:50.282Z,14.03
2018-04-16T19:43:16.567Z,16.30
2018-04-16T19:45:42.842Z,14.33
2018-04-16T19:48:09.126Z,18.10
2018-04-16T19:50:35.404Z,15.37
2018-04-16T19:53:01.678Z,21.57
2018-04-16T19:55:28.003Z,16.10
2018-04-16T19:58:00.359Z,14.70
2018-04-16T20:00:26.625Z,12.83
2018-04-16T20:02:58.912Z,11.20
2018-04-16T20:05:25.304Z,15.37
2018-04-16T20:07:51.617Z,14.53
2018-04-16T20:10:17.879Z,16.40
2018-04-16T20:12:44.238Z,10.67
2018-04-16T20:15:10.492Z,12.63
2018-04-16T20:17:36.797Z,11.43
2018-04-16T20:20:03.102Z,12.10
2018-04-16T20:22:29.370Z,9.87
2018-04-16T20:24:55.641Z,12.63
2018-04-16T20:27:21.944Z,6.93
2018-04-16T20:29:48.221Z,9.03
2018-04-16T20:32:14.499Z,9.47
2018-04-16T20:34:40.910Z,14.23
2018-04-16T20:37:07.178Z,9.17
2018-04-16T20:39:33.442Z,7.67
2018-04-16T20:41:59.715Z,10.07
2018-04-16T20:44:26.002Z,12.07
2018-04-16T20:46:52.366Z,13.00
2018-04-16T20:49:18.792Z,9.37
2018-04-16T20:51:45.063Z,9.03
2018-04-16T20:54:11.456Z,8.97
2018-04-16T20:56:37.781Z,9.97
2018-04-16T20:59:04.494Z,9.73
2018-04-16T21:01:30.945Z,7.93
2018-04-16T21:03:57.205Z,9.40
2018-04-16T21:06:23.480Z,7.10
2018-04-16T21:08:49.751Z,8.97
2018-04-16T21:11:16.019Z,5.73
2018-04-16T21:13:42.279Z,6.20
2018-04-16T21:16:08.570Z,8.57
2018-04-16T21:18:34.835Z,6.53
2018-04-16T21:21:01.107Z,6.00
2018-04-16T21:23:27.345Z,5.33
2018-04-16T21:25:53.616Z,10.83
2018-04-16T21:28:19.866Z,9.20
2018-04-16T21:30:46.150Z,9.90
2018-04-16T21:33:12.445Z,8.40
2018-04-16T21:35:38.722Z,8.13
2018-04-16T21:38:04.989Z,6.77
2018-04-16T21:40:31.313Z,9.10
2018-04-16T21:42:57.582Z,9.13
2018-04-16T21:45:23.991Z,7.43
2018-04-16T21:47:50.241Z,7.77
2018-04-16T21:50:16.575Z,6.40
2018-04-16T21:52:42.891Z,6.97
2018-04-16T21:55:09.187Z,9.87
2018-04-16T21:57:35.474Z,6.07
2018-04-16T22:00:01.738Z,8.57
2018-04-16T22:02:28.028Z,10.40
2018-04-16T22:04:54.298Z,8.07
2018-04-16T22:07:20.567Z,6.53
2018-04-16T22:09:46.845Z,12.03
2018-04-16T22:12:13.223Z,8.93
2018-04-16T22:14:39.517Z,9.90
2018-04-16T22:17:05.866Z,9.20
2018-04-16T22:19:32.201Z,8.30
2018-04-16T22:21:58.625Z,10.67
2018-04-16T22:24:24.877Z,9.63
2018-04-16T22:26:51.193Z,8.40
2018-04-16T22:29:17.523Z,7.63
2018-04-16T22:31:43.877Z,10.30
2018-04-16T22:34:10.182Z,9.60
2018-04-16T22:36:36.465Z,8.83
2018-04-16T22:39:02.839Z,9.10
2018-04-16T22:41:29.152Z,7.37
2018-04-16T22:43:55.415Z,9.90
2018-04-16T22:46:21.685Z,15.43
2018-04-16T22:48:47.993Z,8.57
2018-04-16T22:51:14.266Z,11.13
2018-04-16T22:53:40.560Z,9.20
2018-04-16T22:56:06.841Z,8.03
2018-04-16T22:58:33.122Z,6.97
2018-04-16T23:00:59.540Z,8.30
2018-04-16T23:03:25.850Z,9.00
2018-04-16T23:05:52.182Z,10.07
2018-04-16T23:08:18.557Z,9.93
2018-04-16T23:10:44.877Z,10.63
2018-04-16T23:13:11.189Z,10.57
2018-04-16T23:15:37.525Z,7.77
2018-04-16T23:18:03.945Z,9.90
2018-04-16T23:20:30.270Z,8.50
2018-04-16T23:22:56.602Z,8.07
2018-04-16T23:25:22.934Z,11.07
2018-04-16T23:27:49.261Z,7.17
2018-04-16T23:30:15.597Z,8.20
2018-04-16T23:32:41.919Z,6.13
2018-04-16T23:35:08.265Z,5.33
2018-04-16T23:37:34.578Z,7.53
2018-04-16T23:40:00.914Z,8.73
2018-04-16T23:42:27.254Z,8.07
2018-04-16T23:44:53.570Z,5.73
2018-04-16T23:47:19.905Z,10.97
2018-04-16T23:49:46.368Z,6.40
2018-04-16T23:52:12.732Z,6.33
2018-04-16T23:54:39.046Z,5.03
2018-04-16T23:57:05.382Z,8.20
2018-04-16T23:59:31.710Z,6.67
